48.9°F
Current conditions from King Hill
Updated every 5 minutes
 
  Saturday October 25, 2014

Station Historical Data
Daily Summary for March 7, 2012 Units:  Both    English   Metric
« Previous Day
Next Day »
Daily Weekly Monthly Yearly Custom
  High: Low: Average:
Temperature: 53.8 °F /  12.1 °C 31.5 °F /  -0.3 °C 43.7 °F /  6.5 °C
Dew Point: 30.3 °F /  -0.9 °C 11.6 °F /  -11.3 °C 22.9 °F /  -5.1 °C
Humidity: 51% 36% 44%
Wind Speed: 15.0mph /  24.1km/h - 9.3mph /  15km/h
Wind Gust: 33.0mph /  53.1km/h - -
Wind- - SSW
Pressure: 30.39 in /  1029 hPa 30.04 in /  1017.2 hPa -
Precipitation: 0.00 in /  0 mm    
Historical Graphs
 
 
Tabular Data for March 7, 2012
Time Temperature Dew Point Pressure Wind Wind Speed Wind Gust Humidity Daily Rainfall
00:05 31.5 °F /  -0.3 °C 11.6 °F /  -11.3 °C 30.39in /  1029hPa SSW 7.0mph /  11.3km/h 12.0mph /  19.3km/h 43% 0.00in /  0mm
00:10 31.5 °F /  -0.3 °C 11.6 °F /  -11.3 °C 30.39in /  1029hPa SSW 8.0mph /  12.9km/h 14.0mph /  22.5km/h 43% 0.00in /  0mm
00:15 31.6 °F /  -0.2 °C 12.2 °F /  -11 °C 30.38in /  1028.7hPa SSW 7.0mph /  11.3km/h 14.0mph /  22.5km/h 44% 0.00in /  0mm
00:20 31.7 °F /  -0.2 °C 12.3 °F /  -10.9 °C 30.38in /  1028.7hPa South 3.0mph /  4.8km/h 13.0mph /  20.9km/h 44% 0.00in /  0mm
00:25 31.9 °F /  -0.1 °C 11.9 °F /  -11.2 °C 30.38in /  1028.7hPa SSW 5.0mph /  8km/h 15.0mph /  24.1km/h 43% 0.00in /  0mm
00:30 32.0 °F /  0 °C 12.0 °F /  -11.1 °C 30.38in /  1028.7hPa SSW 6.0mph /  9.7km/h 15.0mph /  24.1km/h 43% 0.00in /  0mm
00:35 32.1 °F /  0.1 °C 12.1 °F /  -11.1 °C 30.38in /  1028.7hPa South 5.0mph /  8km/h 15.0mph /  24.1km/h 43% 0.00in /  0mm
00:40 32.2 °F /  0.1 °C 12.2 °F /  -11 °C 30.38in /  1028.7hPa SSW 7.0mph /  11.3km/h 15.0mph /  24.1km/h 43% 0.00in /  0mm
00:50 32.4 °F /  0.2 °C 12.4 °F /  -10.9 °C 30.38in /  1028.7hPa SSW 6.0mph /  9.7km/h 15.0mph /  24.1km/h 43% 0.00in /  0mm
00:55 32.5 °F /  0.3 °C 12.5 °F /  -10.8 °C 30.38in /  1028.7hPa SW 7.0mph /  11.3km/h 16.0mph /  25.7km/h 43% 0.00in /  0mm
01:00 32.7 °F /  0.4 °C 12.7 °F /  -10.7 °C 30.38in /  1028.7hPa SSW 9.0mph /  14.5km/h 20.0mph /  32.2km/h 43% 0.00in /  0mm
01:05 32.8 °F /  0.4 °C 12.7 °F /  -10.7 °C 30.38in /  1028.7hPa SSW 7.0mph /  11.3km/h 20.0mph /  32.2km/h 43% 0.00in /  0mm
01:10 32.8 °F /  0.4 °C 12.7 °F /  -10.7 °C 30.38in /  1028.7hPa SSW 5.0mph /  8km/h 16.0mph /  25.7km/h 43% 0.00in /  0mm
01:15 32.7 °F /  0.4 °C 13.2 °F /  -10.4 °C 30.38in /  1028.7hPa SSW 7.0mph /  11.3km/h 16.0mph /  25.7km/h 44% 0.00in /  0mm
01:20 32.6 °F /  0.3 °C 13.1 °F /  -10.5 °C 30.38in /  1028.7hPa SSW 6.0mph /  9.7km/h 14.0mph /  22.5km/h 44% 0.00in /  0mm
01:30 32.5 °F /  0.3 °C 13.0 °F /  -10.6 °C 30.38in /  1028.7hPa SSW 7.0mph /  11.3km/h 12.0mph /  19.3km/h 44% 0.00in /  0mm
01:35 32.6 °F /  0.3 °C 13.1 °F /  -10.5 °C 30.38in /  1028.7hPa SSW 6.0mph /  9.7km/h 15.0mph /  24.1km/h 44% 0.00in /  0mm
01:40 32.7 °F /  0.4 °C 13.2 °F /  -10.4 °C 30.38in /  1028.7hPa SSW 7.0mph /  11.3km/h 15.0mph /  24.1km/h 44% 0.00in /  0mm
01:45 32.9 °F /  0.5 °C 13.4 °F /  -10.3 °C 30.37in /  1028.3hPa SSW 6.0mph /  9.7km/h 14.0mph /  22.5km/h 44% 0.00in /  0mm
01:50 32.9 °F /  0.5 °C 13.4 °F /  -10.3 °C 30.37in /  1028.3hPa SSW 8.0mph /  12.9km/h 15.0mph /  24.1km/h 44% 0.00in /  0mm
01:55 32.9 °F /  0.5 °C 13.4 °F /  -10.3 °C 30.37in /  1028.3hPa SSW 10.0mph /  16.1km/h 22.0mph /  35.4km/h 44% 0.00in /  0mm
02:05 33.0 °F /  0.6 °C 13.5 °F /  -10.3 °C 30.37in /  1028.3hPa SSW 11.0mph /  17.7km/h 22.0mph /  35.4km/h 44% 0.00in /  0mm
02:10 33.2 °F /  0.7 °C 13.6 °F /  -10.2 °C 30.36in /  1028hPa SSW 12.0mph /  19.3km/h 21.0mph /  33.8km/h 44% 0.00in /  0mm
02:15 33.2 °F /  0.7 °C 13.6 °F /  -10.2 °C 30.36in /  1028hPa SSW 8.0mph /  12.9km/h 23.0mph /  37km/h 44% 0.00in /  0mm
02:20 33.1 °F /  0.6 °C 14.1 °F /  -9.9 °C 30.36in /  1028hPa SW 8.0mph /  12.9km/h 23.0mph /  37km/h 45% 0.00in /  0mm
02:25 33.1 °F /  0.6 °C 14.1 °F /  -9.9 °C 30.36in /  1028hPa SSW 8.0mph /  12.9km/h 19.0mph /  30.6km/h 45% 0.00in /  0mm
02:30 33.1 °F /  0.6 °C 14.1 °F /  -9.9 °C 30.35in /  1027.7hPa SSW 9.0mph /  14.5km/h 20.0mph /  32.2km/h 45% 0.00in /  0mm
02:35 33.0 °F /  0.6 °C 14.0 °F /  -10 °C 30.35in /  1027.7hPa SSW 10.0mph /  16.1km/h 20.0mph /  32.2km/h 45% 0.00in /  0mm
02:40 32.9 °F /  0.5 °C 13.9 °F /  -10.1 °C 30.34in /  1027.3hPa SSW 8.0mph /  12.9km/h 21.0mph /  33.8km/h 45% 0.00in /  0mm
02:45 32.9 °F /  0.5 °C 14.4 °F /  -9.8 °C 30.34in /  1027.3hPa SSW 11.0mph /  17.7km/h 21.0mph /  33.8km/h 46% 0.00in /  0mm
02:50 33.0 °F /  0.6 °C 14.5 °F /  -9.7 °C 30.34in /  1027.3hPa SSW 10.0mph /  16.1km/h 21.0mph /  33.8km/h 46% 0.00in /  0mm
02:55 33.0 °F /  0.6 °C 14.5 °F /  -9.7 °C 30.33in /  1027hPa SSW 11.0mph /  17.7km/h 21.0mph /  33.8km/h 46% 0.00in /  0mm
03:00 33.0 °F /  0.6 °C 14.5 °F /  -9.7 °C 30.33in /  1027hPa SSW 10.0mph /  16.1km/h 22.0mph /  35.4km/h 46% 0.00in /  0mm
03:05 32.9 °F /  0.5 °C 14.4 °F /  -9.8 °C 30.34in /  1027.3hPa SSW 8.0mph /  12.9km/h 22.0mph /  35.4km/h 46% 0.00in /  0mm
03:10 32.8 °F /  0.4 °C 14.3 °F /  -9.8 °C 30.34in /  1027.3hPa SSW 7.0mph /  11.3km/h 20.0mph /  32.2km/h 46% 0.00in /  0mm
03:15 32.8 °F /  0.4 °C 14.3 °F /  -9.8 °C 30.34in /  1027.3hPa SSW 7.0mph /  11.3km/h 17.0mph /  27.4km/h 46% 0.00in /  0mm
03:20 32.9 °F /  0.5 °C 14.4 °F /  -9.8 °C 30.34in /  1027.3hPa SSW 8.0mph /  12.9km/h 19.0mph /  30.6km/h 46% 0.00in /  0mm
03:25 32.9 °F /  0.5 °C 14.4 °F /  -9.8 °C 30.34in /  1027.3hPa SSW 9.0mph /  14.5km/h 19.0mph /  30.6km/h 46% 0.00in /  0mm
03:30 33.1 °F /  0.6 °C 14.1 °F /  -9.9 °C 30.34in /  1027.3hPa SSW 11.0mph /  17.7km/h 21.0mph /  33.8km/h 45% 0.00in /  0mm
03:35 33.1 °F /  0.6 °C 14.1 °F /  -9.9 °C 30.33in /  1027hPa SSW 8.0mph /  12.9km/h 21.0mph /  33.8km/h 45% 0.00in /  0mm
03:45 33.1 °F /  0.6 °C 14.6 °F /  -9.7 °C 30.33in /  1027hPa SSW 6.0mph /  9.7km/h 18.0mph /  29km/h 46% 0.00in /  0mm
03:50 33.2 °F /  0.7 °C 14.7 °F /  -9.6 °C 30.33in /  1027hPa SSW 8.0mph /  12.9km/h 17.0mph /  27.4km/h 46% 0.00in /  0mm
03:55 33.2 °F /  0.7 °C 15.1 °F /  -9.4 °C 30.33in /  1027hPa SSW 8.0mph /  12.9km/h 17.0mph /  27.4km/h 47% 0.00in /  0mm
04:00 33.3 °F /  0.7 °C 14.7 °F /  -9.6 °C 30.32in /  1026.6hPa South 7.0mph /  11.3km/h 17.0mph /  27.4km/h 46% 0.00in /  0mm
04:05 33.4 °F /  0.8 °C 15.3 °F /  -9.3 °C 30.32in /  1026.6hPa SSW 5.0mph /  8km/h 15.0mph /  24.1km/h 47% 0.00in /  0mm
04:10 33.5 °F /  0.8 °C 15.4 °F /  -9.2 °C 30.32in /  1026.6hPa SSW 6.0mph /  9.7km/h 15.0mph /  24.1km/h 47% 0.00in /  0mm
04:15 33.8 °F /  1 °C 15.7 °F /  -9.1 °C 30.32in /  1026.6hPa SSW 5.0mph /  8km/h 18.0mph /  29km/h 47% 0.00in /  0mm
04:20 33.8 °F /  1 °C 15.7 °F /  -9.1 °C 30.32in /  1026.6hPa SSW 5.0mph /  8km/h 18.0mph /  29km/h 47% 0.00in /  0mm
04:25 33.8 °F /  1 °C 15.7 °F /  -9.1 °C 30.31in /  1026.3hPa South 8.0mph /  12.9km/h 15.0mph /  24.1km/h 47% 0.00in /  0mm
04:30 33.9 °F /  1.1 °C 15.8 °F /  -9 °C 30.31in /  1026.3hPa SSW 7.0mph /  11.3km/h 16.0mph /  25.7km/h 47% 0.00in /  0mm
04:35 34.1 °F /  1.2 °C 16.0 °F /  -8.9 °C 30.31in /  1026.3hPa SSW 8.0mph /  12.9km/h 17.0mph /  27.4km/h 47% 0.00in /  0mm
04:40 34.1 °F /  1.2 °C 16.0 °F /  -8.9 °C 30.31in /  1026.3hPa SSW 9.0mph /  14.5km/h 18.0mph /  29km/h 47% 0.00in /  0mm
04:45 34.1 °F /  1.2 °C 16.5 °F /  -8.6 °C 30.31in /  1026.3hPa SSW 6.0mph /  9.7km/h 18.0mph /  29km/h 48% 0.00in /  0mm
04:50 34.1 °F /  1.2 °C 16.0 °F /  -8.9 °C 30.31in /  1026.3hPa SSW 10.0mph /  16.1km/h 23.0mph /  37km/h 47% 0.00in /  0mm
04:55 34.3 °F /  1.3 °C 16.6 °F /  -8.6 °C 30.30in /  1026hPa SSW 13.0mph /  20.9km/h 23.0mph /  37km/h 48% 0.00in /  0mm
05:00 34.4 °F /  1.3 °C 16.7 °F /  -8.5 °C 30.31in /  1026.3hPa SSW 9.0mph /  14.5km/h 22.0mph /  35.4km/h 48% 0.00in /  0mm
05:05 34.4 °F /  1.3 °C 16.7 °F /  -8.5 °C 30.30in /  1026hPa SSW 13.0mph /  20.9km/h 22.0mph /  35.4km/h 48% 0.00in /  0mm
05:10 34.4 °F /  1.3 °C 16.7 °F /  -8.5 °C 30.30in /  1026hPa SSW 10.0mph /  16.1km/h 22.0mph /  35.4km/h 48% 0.00in /  0mm
05:15 34.4 °F /  1.3 °C 16.7 °F /  -8.5 °C 30.30in /  1026hPa SSW 14.0mph /  22.5km/h 24.0mph /  38.6km/h 48% 0.00in /  0mm
05:20 34.4 °F /  1.3 °C 16.7 °F /  -8.5 °C 30.30in /  1026hPa SSW 9.0mph /  14.5km/h 24.0mph /  38.6km/h 48% 0.00in /  0mm
05:25 34.4 °F /  1.3 °C 17.2 °F /  -8.2 °C 30.30in /  1026hPa SSW 11.0mph /  17.7km/h 27.0mph /  43.5km/h 49% 0.00in /  0mm
05:30 34.4 °F /  1.3 °C 16.7 °F /  -8.5 °C 30.30in /  1026hPa SSW 12.0mph /  19.3km/h 27.0mph /  43.5km/h 48% 0.00in /  0mm
05:35 34.4 °F /  1.3 °C 16.7 °F /  -8.5 °C 30.29in /  1025.6hPa SSW 12.0mph /  19.3km/h 22.0mph /  35.4km/h 48% 0.00in /  0mm
05:40 34.4 °F /  1.3 °C 16.7 °F /  -8.5 °C 30.29in /  1025.6hPa SSW 14.0mph /  22.5km/h 23.0mph /  37km/h 48% 0.00in /  0mm
05:50 34.5 °F /  1.4 °C 17.3 °F /  -8.2 °C 30.29in /  1025.6hPa SSW 9.0mph /  14.5km/h 25.0mph /  40.2km/h 49% 0.00in /  0mm
06:00 34.6 °F /  1.4 °C 17.4 °F /  -8.1 °C 30.28in /  1025.3hPa SSW 11.0mph /  17.7km/h 26.0mph /  41.8km/h 49% 0.00in /  0mm
06:05 34.6 °F /  1.4 °C 17.4 °F /  -8.1 °C 30.28in /  1025.3hPa SSW 11.0mph /  17.7km/h 26.0mph /  41.8km/h 49% 0.00in /  0mm
06:10 34.7 °F /  1.5 °C 17.5 °F /  -8.1 °C 30.28in /  1025.3hPa SSW 14.0mph /  22.5km/h 24.0mph /  38.6km/h 49% 0.00in /  0mm
06:15 34.8 °F /  1.6 °C 18.0 °F /  -7.8 °C 30.28in /  1025.3hPa SSW 10.0mph /  16.1km/h 24.0mph /  38.6km/h 50% 0.00in /  0mm
06:20 34.8 °F /  1.6 °C 18.0 °F /  -7.8 °C 30.28in /  1025.3hPa SSW 10.0mph /  16.1km/h 24.0mph /  38.6km/h 50% 0.00in /  0mm
06:25 34.8 °F /  1.6 °C 18.0 °F /  -7.8 °C 30.28in /  1025.3hPa SSW 12.0mph /  19.3km/h 24.0mph /  38.6km/h 50% 0.00in /  0mm
06:30 34.8 °F /  1.6 °C 18.0 °F /  -7.8 °C 30.28in /  1025.3hPa SSW 11.0mph /  17.7km/h 26.0mph /  41.8km/h 50% 0.00in /  0mm
06:35 34.9 °F /  1.6 °C 18.1 °F /  -7.7 °C 30.27in /  1024.9hPa SSW 13.0mph /  20.9km/h 26.0mph /  41.8km/h 50% 0.00in /  0mm
06:45 35.0 °F /  1.7 °C 18.2 °F /  -7.7 °C 30.27in /  1024.9hPa SSW 12.0mph /  19.3km/h 24.0mph /  38.6km/h 50% 0.00in /  0mm
06:50 35.1 °F /  1.7 °C 18.3 °F /  -7.6 °C 30.27in /  1024.9hPa SSW 12.0mph /  19.3km/h 24.0mph /  38.6km/h 50% 0.00in /  0mm
06:55 35.2 °F /  1.8 °C 18.4 °F /  -7.6 °C 30.27in /  1024.9hPa SSW 12.0mph /  19.3km/h 24.0mph /  38.6km/h 50% 0.00in /  0mm
07:00 35.2 °F /  1.8 °C 18.9 °F /  -7.3 °C 30.26in /  1024.6hPa SSW 12.0mph /  19.3km/h 24.0mph /  38.6km/h 51% 0.00in /  0mm
07:05 35.3 °F /  1.8 °C 19.0 °F /  -7.2 °C 30.26in /  1024.6hPa SSW 12.0mph /  19.3km/h 23.0mph /  37km/h 51% 0.00in /  0mm
07:10 35.4 °F /  1.9 °C 19.1 °F /  -7.2 °C 30.26in /  1024.6hPa SSW 9.0mph /  14.5km/h 22.0mph /  35.4km/h 51% 0.00in /  0mm
07:15 35.5 °F /  1.9 °C 19.2 °F /  -7.1 °C 30.26in /  1024.6hPa SSW 9.0mph /  14.5km/h 21.0mph /  33.8km/h 51% 0.00in /  0mm
07:20 35.7 °F /  2.1 °C 19.3 °F /  -7.1 °C 30.26in /  1024.6hPa SSW 12.0mph /  19.3km/h 27.0mph /  43.5km/h 51% 0.00in /  0mm
07:25 35.7 °F /  2.1 °C 19.3 °F /  -7.1 °C 30.26in /  1024.6hPa SW 11.0mph /  17.7km/h 27.0mph /  43.5km/h 51% 0.00in /  0mm
07:30 35.9 °F /  2.2 °C 19.5 °F /  -6.9 °C 30.26in /  1024.6hPa SSW 11.0mph /  17.7km/h 24.0mph /  38.6km/h 51% 0.00in /  0mm
07:40 36.2 °F /  2.3 °C 19.8 °F /  -6.8 °C 30.26in /  1024.6hPa SSW 13.0mph /  20.9km/h 23.0mph /  37km/h 51% 0.00in /  0mm
07:45 36.2 °F /  2.3 °C 19.8 °F /  -6.8 °C 30.26in /  1024.6hPa SSW 8.0mph /  12.9km/h 22.0mph /  35.4km/h 51% 0.00in /  0mm
07:50 36.3 °F /  2.4 °C 19.9 °F /  -6.7 °C 30.25in /  1024.3hPa SSW 10.0mph /  16.1km/h 20.0mph /  32.2km/h 51% 0.00in /  0mm
07:55 36.5 °F /  2.5 °C 19.6 °F /  -6.9 °C 30.25in /  1024.3hPa SSW 11.0mph /  17.7km/h 23.0mph /  37km/h 50% 0.00in /  0mm
08:00 36.8 °F /  2.7 °C 20.4 °F /  -6.4 °C 30.25in /  1024.3hPa SW 10.0mph /  16.1km/h 24.0mph /  38.6km/h 51% 0.00in /  0mm
08:05 36.9 °F /  2.7 °C 20.0 °F /  -6.7 °C 30.25in /  1024.3hPa SSW 12.0mph /  19.3km/h 25.0mph /  40.2km/h 50% 0.00in /  0mm
08:10 37.2 °F /  2.9 °C 20.3 °F /  -6.5 °C 30.25in /  1024.3hPa SSW 11.0mph /  17.7km/h 25.0mph /  40.2km/h 50% 0.00in /  0mm
08:20 38.2 °F /  3.4 °C 21.2 °F /  -6 °C 30.25in /  1024.3hPa SSW 13.0mph /  20.9km/h 25.0mph /  40.2km/h 50% 0.00in /  0mm
08:30 38.7 °F /  3.7 °C 21.2 °F /  -6 °C 30.25in /  1024.3hPa SSW 11.0mph /  17.7km/h 21.0mph /  33.8km/h 49% 0.00in /  0mm
08:35 38.9 °F /  3.8 °C 21.4 °F /  -5.9 °C 30.25in /  1024.3hPa SSW 14.0mph /  22.5km/h 24.0mph /  38.6km/h 49% 0.00in /  0mm
08:40 39.3 °F /  4.1 °C 21.7 °F /  -5.7 °C 30.25in /  1024.3hPa SSW 10.0mph /  16.1km/h 24.0mph /  38.6km/h 49% 0.00in /  0mm
08:45 39.7 °F /  4.3 °C 21.6 °F /  -5.8 °C 30.24in /  1023.9hPa SSW 12.0mph /  19.3km/h 22.0mph /  35.4km/h 48% 0.00in /  0mm
08:55 40.2 °F /  4.6 °C 21.6 °F /  -5.8 °C 30.24in /  1023.9hPa SSW 12.0mph /  19.3km/h 24.0mph /  38.6km/h 47% 0.00in /  0mm
09:00 40.5 °F /  4.7 °C 21.9 °F /  -5.6 °C 30.24in /  1023.9hPa SSW 12.0mph /  19.3km/h 25.0mph /  40.2km/h 47% 0.00in /  0mm
09:05 40.7 °F /  4.8 °C 22.0 °F /  -5.6 °C 30.24in /  1023.9hPa SSW 14.0mph /  22.5km/h 26.0mph /  41.8km/h 47% 0.00in /  0mm
09:10 40.9 °F /  4.9 °C 21.7 °F /  -5.7 °C 30.24in /  1023.9hPa SSW 13.0mph /  20.9km/h 26.0mph /  41.8km/h 46% 0.00in /  0mm
09:15 41.1 °F /  5.1 °C 21.9 °F /  -5.6 °C 30.24in /  1023.9hPa SSW 14.0mph /  22.5km/h 33.0mph /  53.1km/h 46% 0.00in /  0mm
09:20 41.3 °F /  5.2 °C 22.1 °F /  -5.5 °C 30.24in /  1023.9hPa SSW 15.0mph /  24.1km/h 33.0mph /  53.1km/h 46% 0.00in /  0mm
09:25 41.5 °F /  5.3 °C 22.3 °F /  -5.4 °C 30.23in /  1023.6hPa SSW 14.0mph /  22.5km/h 25.0mph /  40.2km/h 46% 0.00in /  0mm
09:30 41.7 °F /  5.4 °C 22.4 °F /  -5.3 °C 30.24in /  1023.9hPa SSW 13.0mph /  20.9km/h 23.0mph /  37km/h 46% 0.00in /  0mm
09:40 42.0 °F /  5.6 °C 22.2 °F /  -5.4 °C 30.23in /  1023.6hPa SSW 13.0mph /  20.9km/h 23.0mph /  37km/h 45% 0.00in /  0mm
09:50 42.4 °F /  5.8 °C 22.6 °F /  -5.2 °C 30.23in /  1023.6hPa SSW 12.0mph /  19.3km/h 24.0mph /  38.6km/h 45% 0.00in /  0mm
09:55 42.7 °F /  5.9 °C 22.8 °F /  -5.1 °C 30.22in /  1023.2hPa SSW 10.0mph /  16.1km/h 24.0mph /  38.6km/h 45% 0.00in /  0mm
10:00 42.8 °F /  6 °C 22.9 °F /  -5.1 °C 30.22in /  1023.2hPa SW 14.0mph /  22.5km/h 26.0mph /  41.8km/h 45% 0.00in /  0mm
10:05 43.0 °F /  6.1 °C 23.1 °F /  -4.9 °C 30.23in /  1023.6hPa SW 13.0mph /  20.9km/h 26.0mph /  41.8km/h 45% 0.00in /  0mm
10:10 43.2 °F /  6.2 °C 23.3 °F /  -4.8 °C 30.22in /  1023.2hPa SSW 13.0mph /  20.9km/h 23.0mph /  37km/h 45% 0.00in /  0mm
10:15 43.3 °F /  6.3 °C 23.4 °F /  -4.8 °C 30.22in /  1023.2hPa SSW 11.0mph /  17.7km/h 22.0mph /  35.4km/h 45% 0.00in /  0mm
10:20 43.5 °F /  6.4 °C 23.6 °F /  -4.7 °C 30.22in /  1023.2hPa SSW 11.0mph /  17.7km/h 23.0mph /  37km/h 45% 0.00in /  0mm
10:25 43.7 °F /  6.5 °C 23.2 °F /  -4.9 °C 30.22in /  1023.2hPa SSW 11.0mph /  17.7km/h 23.0mph /  37km/h 44% 0.00in /  0mm
10:30 43.8 °F /  6.6 °C 23.8 °F /  -4.6 °C 30.21in /  1022.9hPa SW 12.0mph /  19.3km/h 22.0mph /  35.4km/h 45% 0.00in /  0mm
10:40 44.1 °F /  6.7 °C 23.6 °F /  -4.7 °C 30.21in /  1022.9hPa SW 10.0mph /  16.1km/h 23.0mph /  37km/h 44% 0.00in /  0mm
10:45 44.3 °F /  6.8 °C 23.2 °F /  -4.9 °C 30.21in /  1022.9hPa SW 15.0mph /  24.1km/h 24.0mph /  38.6km/h 43% 0.00in /  0mm
10:50 44.5 °F /  6.9 °C 23.4 °F /  -4.8 °C 30.21in /  1022.9hPa SSW 12.0mph /  19.3km/h 24.0mph /  38.6km/h 43% 0.00in /  0mm
10:55 44.7 °F /  7.1 °C 23.6 °F /  -4.7 °C 30.21in /  1022.9hPa SSW 12.0mph /  19.3km/h 21.0mph /  33.8km/h 43% 0.00in /  0mm
11:05 45.1 °F /  7.3 °C 23.9 °F /  -4.5 °C 30.20in /  1022.6hPa SW 10.0mph /  16.1km/h 23.0mph /  37km/h 43% 0.00in /  0mm
11:10 45.1 °F /  7.3 °C 23.9 °F /  -4.5 °C 30.20in /  1022.6hPa SSW 12.0mph /  19.3km/h 23.0mph /  37km/h 43% 0.00in /  0mm
11:15 45.2 °F /  7.3 °C 24.0 °F /  -4.4 °C 30.20in /  1022.6hPa SSW 10.0mph /  16.1km/h 23.0mph /  37km/h 43% 0.00in /  0mm
11:20 45.7 °F /  7.6 °C 24.5 °F /  -4.2 °C 30.20in /  1022.6hPa SSW 9.0mph /  14.5km/h 23.0mph /  37km/h 43% 0.00in /  0mm
11:25 45.9 °F /  7.7 °C 24.1 °F /  -4.4 °C 30.20in /  1022.6hPa SSW 9.0mph /  14.5km/h 19.0mph /  30.6km/h 42% 0.00in /  0mm
11:30 46.1 °F /  7.8 °C 24.8 °F /  -4 °C 30.19in /  1022.2hPa SSW 12.0mph /  19.3km/h 22.0mph /  35.4km/h 43% 0.00in /  0mm
11:40 46.3 °F /  7.9 °C 24.5 °F /  -4.2 °C 30.19in /  1022.2hPa SSW 12.0mph /  19.3km/h 25.0mph /  40.2km/h 42% 0.00in /  0mm
11:45 46.9 °F /  8.3 °C 24.4 °F /  -4.2 °C 30.19in /  1022.2hPa SSW 11.0mph /  17.7km/h 22.0mph /  35.4km/h 41% 0.00in /  0mm
11:50 47.1 °F /  8.4 °C 25.2 °F /  -3.8 °C 30.19in /  1022.2hPa SW 7.0mph /  11.3km/h 19.0mph /  30.6km/h 42% 0.00in /  0mm
11:55 47.4 °F /  8.6 °C 25.5 °F /  -3.6 °C 30.18in /  1021.9hPa SSW 10.0mph /  16.1km/h 18.0mph /  29km/h 42% 0.00in /  0mm
12:00 47.6 °F /  8.7 °C 25.1 °F /  -3.8 °C 30.18in /  1021.9hPa SSW 10.0mph /  16.1km/h 18.0mph /  29km/h 41% 0.00in /  0mm
12:05 47.8 °F /  8.8 °C 24.6 °F /  -4.1 °C 30.18in /  1021.9hPa SW 11.0mph /  17.7km/h 18.0mph /  29km/h 40% 0.00in /  0mm
12:10 48.1 °F /  8.9 °C 24.9 °F /  -3.9 °C 30.17in /  1021.6hPa SW 10.0mph /  16.1km/h 20.0mph /  32.2km/h 40% 0.00in /  0mm
12:15 48.2 °F /  9 °C 25.6 °F /  -3.6 °C 30.17in /  1021.6hPa SW 11.0mph /  17.7km/h 20.0mph /  32.2km/h 41% 0.00in /  0mm
12:20 48.2 °F /  9 °C 25.6 °F /  -3.6 °C 30.17in /  1021.6hPa SSW 11.0mph /  17.7km/h 22.0mph /  35.4km/h 41% 0.00in /  0mm
12:25 48.3 °F /  9.1 °C 25.1 °F /  -3.8 °C 30.17in /  1021.6hPa SW 10.0mph /  16.1km/h 22.0mph /  35.4km/h 40% 0.00in /  0mm
12:30 48.1 °F /  8.9 °C 24.9 °F /  -3.9 °C 30.17in /  1021.6hPa SW 10.0mph /  16.1km/h 19.0mph /  30.6km/h 40% 0.00in /  0mm
12:35 48.0 °F /  8.9 °C 25.4 °F /  -3.7 °C 30.17in /  1021.6hPa SW 9.0mph /  14.5km/h 19.0mph /  30.6km/h 41% 0.00in /  0mm
12:40 47.9 °F /  8.8 °C 25.3 °F /  -3.7 °C 30.17in /  1021.6hPa SSW 6.0mph /  9.7km/h 19.0mph /  30.6km/h 41% 0.00in /  0mm
12:45 48.1 °F /  8.9 °C 25.5 °F /  -3.6 °C 30.16in /  1021.2hPa SSW 7.0mph /  11.3km/h 17.0mph /  27.4km/h 41% 0.00in /  0mm
12:50 48.3 °F /  9.1 °C 25.7 °F /  -3.5 °C 30.16in /  1021.2hPa SSW 6.0mph /  9.7km/h 17.0mph /  27.4km/h 41% 0.00in /  0mm
12:55 48.9 °F /  9.4 °C 26.8 °F /  -2.9 °C 30.16in /  1021.2hPa SSW 6.0mph /  9.7km/h 14.0mph /  22.5km/h 42% 0.00in /  0mm
13:00 49.2 °F /  9.6 °C 25.9 °F /  -3.4 °C 30.15in /  1020.9hPa SSW 9.0mph /  14.5km/h 17.0mph /  27.4km/h 40% 0.00in /  0mm
13:05 49.5 °F /  9.7 °C 25.6 °F /  -3.6 °C 30.15in /  1020.9hPa SSW 11.0mph /  17.7km/h 17.0mph /  27.4km/h 39% 0.00in /  0mm
13:10 49.6 °F /  9.8 °C 25.7 °F /  -3.5 °C 30.15in /  1020.9hPa SSW 10.0mph /  16.1km/h 19.0mph /  30.6km/h 39% 0.00in /  0mm
13:15 50.0 °F /  10 °C 26.0 °F /  -3.3 °C 30.15in /  1020.9hPa SSW 10.0mph /  16.1km/h 20.0mph /  32.2km/h 39% 0.00in /  0mm
13:20 50.3 °F /  10.2 °C 25.7 °F /  -3.5 °C 30.15in /  1020.9hPa SSW 10.0mph /  16.1km/h 20.0mph /  32.2km/h 38% 0.00in /  0mm
13:25 50.3 °F /  10.2 °C 26.3 °F /  -3.2 °C 30.15in /  1020.9hPa SSW 9.0mph /  14.5km/h 18.0mph /  29km/h 39% 0.00in /  0mm
13:35 50.7 °F /  10.4 °C 26.0 °F /  -3.3 °C 30.14in /  1020.5hPa SSW 10.0mph /  16.1km/h 17.0mph /  27.4km/h 38% 0.00in /  0mm
13:40 51.0 °F /  10.6 °C 26.3 °F /  -3.2 °C 30.14in /  1020.5hPa SW 9.0mph /  14.5km/h 18.0mph /  29km/h 38% 0.00in /  0mm
13:45 51.4 °F /  10.8 °C 26.6 °F /  -3 °C 30.13in /  1020.2hPa SSW 8.0mph /  12.9km/h 18.0mph /  29km/h 38% 0.00in /  0mm
13:50 51.8 °F /  11 °C 27.0 °F /  -2.8 °C 30.13in /  1020.2hPa SSW 8.0mph /  12.9km/h 18.0mph /  29km/h 38% 0.00in /  0mm
13:55 52.1 °F /  11.2 °C 26.6 °F /  -3 °C 30.13in /  1020.2hPa SSW 9.0mph /  14.5km/h 17.0mph /  27.4km/h 37% 0.00in /  0mm
14:00 52.1 °F /  11.2 °C 27.3 °F /  -2.6 °C 30.13in /  1020.2hPa SSW 8.0mph /  12.9km/h 17.0mph /  27.4km/h 38% 0.00in /  0mm
14:05 52.3 °F /  11.3 °C 27.4 °F /  -2.6 °C 30.13in /  1020.2hPa SSW 10.0mph /  16.1km/h 16.0mph /  25.7km/h 38% 0.00in /  0mm
14:10 52.5 °F /  11.4 °C 27.0 °F /  -2.8 °C 30.12in /  1019.9hPa SSW 10.0mph /  16.1km/h 18.0mph /  29km/h 37% 0.00in /  0mm
14:15 52.8 °F /  11.6 °C 27.2 °F /  -2.7 °C 30.12in /  1019.9hPa SSW 10.0mph /  16.1km/h 18.0mph /  29km/h 37% 0.00in /  0mm
14:20 52.7 °F /  11.5 °C 27.2 °F /  -2.7 °C 30.12in /  1019.9hPa SSW 9.0mph /  14.5km/h 18.0mph /  29km/h 37% 0.00in /  0mm
14:25 52.8 °F /  11.6 °C 27.2 °F /  -2.7 °C 30.12in /  1019.9hPa SSW 10.0mph /  16.1km/h 20.0mph /  32.2km/h 37% 0.00in /  0mm
14:30 52.8 °F /  11.6 °C 27.2 °F /  -2.7 °C 30.12in /  1019.9hPa SSW 8.0mph /  12.9km/h 20.0mph /  32.2km/h 37% 0.00in /  0mm
14:35 52.5 °F /  11.4 °C 27.0 °F /  -2.8 °C 30.11in /  1019.5hPa SSW 10.0mph /  16.1km/h 16.0mph /  25.7km/h 37% 0.00in /  0mm
14:40 52.8 °F /  11.6 °C 27.2 °F /  -2.7 °C 30.12in /  1019.9hPa SSW 8.0mph /  12.9km/h 18.0mph /  29km/h 37% 0.00in /  0mm
14:45 53.0 °F /  11.7 °C 27.4 °F /  -2.6 °C 30.12in /  1019.9hPa SSW 8.0mph /  12.9km/h 18.0mph /  29km/h 37% 0.00in /  0mm
14:55 52.8 °F /  11.6 °C 27.2 °F /  -2.7 °C 30.11in /  1019.5hPa SSW 8.0mph /  12.9km/h 18.0mph /  29km/h 37% 0.00in /  0mm
15:00 52.8 °F /  11.6 °C 27.9 °F /  -2.3 °C 30.11in /  1019.5hPa SSW 9.0mph /  14.5km/h 18.0mph /  29km/h 38% 0.00in /  0mm
15:05 53.4 °F /  11.9 °C 27.8 °F /  -2.3 °C 30.11in /  1019.5hPa SSW 8.0mph /  12.9km/h 16.0mph /  25.7km/h 37% 0.00in /  0mm
15:10 53.7 °F /  12.1 °C 28.1 °F /  -2.2 °C 30.11in /  1019.5hPa SW 7.0mph /  11.3km/h 18.0mph /  29km/h 37% 0.00in /  0mm
15:20 53.8 °F /  12.1 °C 28.1 °F /  -2.2 °C 30.11in /  1019.5hPa SSW 9.0mph /  14.5km/h 15.0mph /  24.1km/h 37% 0.00in /  0mm
15:30 53.5 °F /  11.9 °C 27.2 °F /  -2.7 °C 30.11in /  1019.5hPa SSW 10.0mph /  16.1km/h 19.0mph /  30.6km/h 36% 0.00in /  0mm
15:35 53.5 °F /  11.9 °C 27.9 °F /  -2.3 °C 30.11in /  1019.5hPa SSW 8.0mph /  12.9km/h 19.0mph /  30.6km/h 37% 0.00in /  0mm
15:40 53.6 °F /  12 °C 27.3 °F /  -2.6 °C 30.10in /  1019.2hPa SSW 8.0mph /  12.9km/h 18.0mph /  29km/h 36% 0.00in /  0mm
15:45 53.4 °F /  11.9 °C 27.8 °F /  -2.3 °C 30.10in /  1019.2hPa SSW 9.0mph /  14.5km/h 18.0mph /  29km/h 37% 0.00in /  0mm
15:55 52.7 °F /  11.5 °C 27.8 °F /  -2.3 °C 30.10in /  1019.2hPa SSW 9.0mph /  14.5km/h 20.0mph /  32.2km/h 38% 0.00in /  0mm
16:00 52.9 °F /  11.6 °C 27.3 °F /  -2.6 °C 30.09in /  1018.8hPa SSW 9.0mph /  14.5km/h 19.0mph /  30.6km/h 37% 0.00in /  0mm
16:05 52.8 °F /  11.6 °C 27.9 °F /  -2.3 °C 30.09in /  1018.8hPa SSW 5.0mph /  8km/h 22.0mph /  35.4km/h 38% 0.00in /  0mm
16:10 52.7 °F /  11.5 °C 27.8 °F /  -2.3 °C 30.09in /  1018.8hPa SSW 7.0mph /  11.3km/h 22.0mph /  35.4km/h 38% 0.00in /  0mm
16:15 52.7 °F /  11.5 °C 27.8 °F /  -2.3 °C 30.09in /  1018.8hPa SSW 7.0mph /  11.3km/h 17.0mph /  27.4km/h 38% 0.00in /  0mm
16:20 52.8 °F /  11.6 °C 27.9 °F /  -2.3 °C 30.09in /  1018.8hPa SSW 8.0mph /  12.9km/h 17.0mph /  27.4km/h 38% 0.00in /  0mm
16:25 52.8 °F /  11.6 °C 27.9 °F /  -2.3 °C 30.09in /  1018.8hPa SSW 8.0mph /  12.9km/h 14.0mph /  22.5km/h 38% 0.00in /  0mm
16:30 52.9 °F /  11.6 °C 28.0 °F /  -2.2 °C 30.09in /  1018.8hPa SSW 8.0mph /  12.9km/h 14.0mph /  22.5km/h 38% 0.00in /  0mm
16:35 52.9 °F /  11.6 °C 27.3 °F /  -2.6 °C 30.09in /  1018.8hPa SSW 7.0mph /  11.3km/h 14.0mph /  22.5km/h 37% 0.00in /  0mm
16:40 52.8 °F /  11.6 °C 27.2 °F /  -2.7 °C 30.09in /  1018.8hPa SSW 9.0mph /  14.5km/h 17.0mph /  27.4km/h 37% 0.00in /  0mm
16:45 52.6 °F /  11.4 °C 27.7 °F /  -2.4 °C 30.09in /  1018.8hPa SSW 8.0mph /  12.9km/h 17.0mph /  27.4km/h 38% 0.00in /  0mm
16:50 52.2 °F /  11.2 °C 27.4 °F /  -2.6 °C 30.09in /  1018.8hPa SSW 7.0mph /  11.3km/h 16.0mph /  25.7km/h 38% 0.00in /  0mm
16:55 52.0 °F /  11.1 °C 27.8 °F /  -2.3 °C 30.09in /  1018.8hPa SSW 6.0mph /  9.7km/h 17.0mph /  27.4km/h 39% 0.00in /  0mm
17:05 51.8 °F /  11 °C 27.6 °F /  -2.4 °C 30.09in /  1018.8hPa SSW 6.0mph /  9.7km/h 16.0mph /  25.7km/h 39% 0.00in /  0mm
17:15 51.5 °F /  10.8 °C 27.4 °F /  -2.6 °C 30.09in /  1018.8hPa SSW 8.0mph /  12.9km/h 16.0mph /  25.7km/h 39% 0.00in /  0mm
17:20 51.4 °F /  10.8 °C 27.3 °F /  -2.6 °C 30.09in /  1018.8hPa SSW 7.0mph /  11.3km/h 16.0mph /  25.7km/h 39% 0.00in /  0mm
17:25 51.2 °F /  10.7 °C 27.1 °F /  -2.7 °C 30.09in /  1018.8hPa SSW 9.0mph /  14.5km/h 17.0mph /  27.4km/h 39% 0.00in /  0mm
17:30 51.0 °F /  10.6 °C 27.5 °F /  -2.5 °C 30.09in /  1018.8hPa SSW 8.0mph /  12.9km/h 17.0mph /  27.4km/h 40% 0.00in /  0mm
17:35 50.8 °F /  10.4 °C 27.3 °F /  -2.6 °C 30.09in /  1018.8hPa SSW 8.0mph /  12.9km/h 14.0mph /  22.5km/h 40% 0.00in /  0mm
17:40 50.6 °F /  10.3 °C 27.2 °F /  -2.7 °C 30.09in /  1018.8hPa SSW 8.0mph /  12.9km/h 14.0mph /  22.5km/h 40% 0.00in /  0mm
17:45 50.5 °F /  10.3 °C 27.7 °F /  -2.4 °C 30.09in /  1018.8hPa SSW 5.0mph /  8km/h 14.0mph /  22.5km/h 41% 0.00in /  0mm
17:50 50.5 °F /  10.3 °C 27.7 °F /  -2.4 °C 30.09in /  1018.8hPa SSW 9.0mph /  14.5km/h 14.0mph /  22.5km/h 41% 0.00in /  0mm
17:55 50.3 °F /  10.2 °C 27.5 °F /  -2.5 °C 30.09in /  1018.8hPa SSW 6.0mph /  9.7km/h 14.0mph /  22.5km/h 41% 0.00in /  0mm
18:00 50.2 °F /  10.1 °C 28.0 °F /  -2.2 °C 30.09in /  1018.8hPa SSW 6.0mph /  9.7km/h 15.0mph /  24.1km/h 42% 0.00in /  0mm
18:10 50.3 °F /  10.2 °C 27.5 °F /  -2.5 °C 30.09in /  1018.8hPa SSW 9.0mph /  14.5km/h 16.0mph /  25.7km/h 41% 0.00in /  0mm
18:15 50.4 °F /  10.2 °C 27.6 °F /  -2.4 °C 30.09in /  1018.8hPa SSW 8.0mph /  12.9km/h 16.0mph /  25.7km/h 41% 0.00in /  0mm
18:20 50.3 °F /  10.2 °C 28.1 °F /  -2.2 °C 30.09in /  1018.8hPa South 7.0mph /  11.3km/h 17.0mph /  27.4km/h 42% 0.00in /  0mm
18:25 50.2 °F /  10.1 °C 28.0 °F /  -2.2 °C 30.09in /  1018.8hPa SSW 8.0mph /  12.9km/h 17.0mph /  27.4km/h 42% 0.00in /  0mm
18:30 50.3 °F /  10.2 °C 28.1 °F /  -2.2 °C 30.09in /  1018.8hPa SSW 9.0mph /  14.5km/h 16.0mph /  25.7km/h 42% 0.00in /  0mm
18:35 50.5 °F /  10.3 °C 27.7 °F /  -2.4 °C 30.09in /  1018.8hPa SSW 9.0mph /  14.5km/h 18.0mph /  29km/h 41% 0.00in /  0mm
18:40 50.3 °F /  10.2 °C 28.1 °F /  -2.2 °C 30.09in /  1018.8hPa SSW 8.0mph /  12.9km/h 18.0mph /  29km/h 42% 0.00in /  0mm
18:45 50.3 °F /  10.2 °C 28.1 °F /  -2.2 °C 30.09in /  1018.8hPa SSW 8.0mph /  12.9km/h 17.0mph /  27.4km/h 42% 0.00in /  0mm
18:50 50.1 °F /  10.1 °C 28.5 °F /  -1.9 °C 30.09in /  1018.8hPa SSW 7.0mph /  11.3km/h 15.0mph /  24.1km/h 43% 0.00in /  0mm
18:55 50.1 °F /  10.1 °C 28.5 °F /  -1.9 °C 30.09in /  1018.8hPa SSW 10.0mph /  16.1km/h 20.0mph /  32.2km/h 43% 0.00in /  0mm
19:00 50.1 °F /  10.1 °C 28.5 °F /  -1.9 °C 30.09in /  1018.8hPa SSW 9.0mph /  14.5km/h 20.0mph /  32.2km/h 43% 0.00in /  0mm
19:05 50.2 °F /  10.1 °C 28.6 °F /  -1.9 °C 30.08in /  1018.5hPa SSW 10.0mph /  16.1km/h 18.0mph /  29km/h 43% 0.00in /  0mm
19:10 50.2 °F /  10.1 °C 28.6 °F /  -1.9 °C 30.08in /  1018.5hPa SSW 8.0mph /  12.9km/h 16.0mph /  25.7km/h 43% 0.00in /  0mm
19:15 50.1 °F /  10.1 °C 29.0 °F /  -1.7 °C 30.08in /  1018.5hPa SSW 8.0mph /  12.9km/h 17.0mph /  27.4km/h 44% 0.00in /  0mm
19:20 49.9 °F /  9.9 °C 28.9 °F /  -1.7 °C 30.08in /  1018.5hPa SSW 8.0mph /  12.9km/h 17.0mph /  27.4km/h 44% 0.00in /  0mm
19:25 50.1 °F /  10.1 °C 29.0 °F /  -1.7 °C 30.08in /  1018.5hPa SSW 9.0mph /  14.5km/h 17.0mph /  27.4km/h 44% 0.00in /  0mm
19:35 50.2 °F /  10.1 °C 29.1 °F /  -1.6 °C 30.08in /  1018.5hPa SSW 12.0mph /  19.3km/h 20.0mph /  32.2km/h 44% 0.00in /  0mm
19:40 50.2 °F /  10.1 °C 29.1 °F /  -1.6 °C 30.08in /  1018.5hPa SSW 8.0mph /  12.9km/h 20.0mph /  32.2km/h 44% 0.00in /  0mm
19:45 50.5 °F /  10.3 °C 29.4 °F /  -1.4 °C 30.08in /  1018.5hPa SSW 10.0mph /  16.1km/h 17.0mph /  27.4km/h 44% 0.00in /  0mm
19:50 50.4 °F /  10.2 °C 29.3 °F /  -1.5 °C 30.08in /  1018.5hPa SSW 8.0mph /  12.9km/h 17.0mph /  27.4km/h 44% 0.00in /  0mm
19:55 50.3 °F /  10.2 °C 29.8 °F /  -1.2 °C 30.08in /  1018.5hPa SSW 8.0mph /  12.9km/h 19.0mph /  30.6km/h 45% 0.00in /  0mm
20:00 50.5 °F /  10.3 °C 29.4 °F /  -1.4 °C 30.08in /  1018.5hPa SSW 9.0mph /  14.5km/h 19.0mph /  30.6km/h 44% 0.00in /  0mm
20:05 50.7 °F /  10.4 °C 29.6 °F /  -1.3 °C 30.08in /  1018.5hPa SSW 9.0mph /  14.5km/h 17.0mph /  27.4km/h 44% 0.00in /  0mm
20:10 50.8 °F /  10.4 °C 29.7 °F /  -1.3 °C 30.08in /  1018.5hPa SSW 7.0mph /  11.3km/h 20.0mph /  32.2km/h 44% 0.00in /  0mm
20:15 51.0 °F /  10.6 °C 29.9 °F /  -1.2 °C 30.07in /  1018.2hPa SSW 10.0mph /  16.1km/h 22.0mph /  35.4km/h 44% 0.00in /  0mm
20:20 50.9 °F /  10.5 °C 29.8 °F /  -1.2 °C 30.07in /  1018.2hPa SSW 7.0mph /  11.3km/h 22.0mph /  35.4km/h 44% 0.00in /  0mm
20:25 50.6 °F /  10.3 °C 30.0 °F /  -1.1 °C 30.07in /  1018.2hPa SSW 8.0mph /  12.9km/h 21.0mph /  33.8km/h 45% 0.00in /  0mm
20:30 50.8 °F /  10.4 °C 29.7 °F /  -1.3 °C 30.07in /  1018.2hPa SSW 12.0mph /  19.3km/h 23.0mph /  37km/h 44% 0.00in /  0mm
20:35 50.9 °F /  10.5 °C 29.8 °F /  -1.2 °C 30.06in /  1017.8hPa SSW 10.0mph /  16.1km/h 23.0mph /  37km/h 44% 0.00in /  0mm
20:45 50.8 °F /  10.4 °C 29.7 °F /  -1.3 °C 30.06in /  1017.8hPa SSW 9.0mph /  14.5km/h 21.0mph /  33.8km/h 44% 0.00in /  0mm
20:50 50.7 °F /  10.4 °C 30.1 °F /  -1.1 °C 30.06in /  1017.8hPa SSW 11.0mph /  17.7km/h 24.0mph /  38.6km/h 45% 0.00in /  0mm
20:55 50.7 °F /  10.4 °C 30.1 °F /  -1.1 °C 30.06in /  1017.8hPa SSW 9.0mph /  14.5km/h 24.0mph /  38.6km/h 45% 0.00in /  0mm
21:05 50.9 °F /  10.5 °C 29.8 °F /  -1.2 °C 30.06in /  1017.8hPa SSW 9.0mph /  14.5km/h 24.0mph /  38.6km/h 44% 0.00in /  0mm
21:10 50.9 °F /  10.5 °C 30.3 °F /  -0.9 °C 30.06in /  1017.8hPa SSW 10.0mph /  16.1km/h 20.0mph /  32.2km/h 45% 0.00in /  0mm
21:15 50.9 °F /  10.5 °C 29.8 °F /  -1.2 °C 30.05in /  1017.5hPa SSW 11.0mph /  17.7km/h 23.0mph /  37km/h 44% 0.00in /  0mm
21:20 50.8 °F /  10.4 °C 30.2 °F /  -1 °C 30.05in /  1017.5hPa SW 12.0mph /  19.3km/h 23.0mph /  37km/h 45% 0.00in /  0mm
21:30 50.8 °F /  10.4 °C 30.2 °F /  -1 °C 30.05in /  1017.5hPa SW 13.0mph /  20.9km/h 21.0mph /  33.8km/h 45% 0.00in /  0mm
21:35 50.9 °F /  10.5 °C 29.8 °F /  -1.2 °C 30.05in /  1017.5hPa SSW 8.0mph /  12.9km/h 23.0mph /  37km/h 44% 0.00in /  0mm
21:40 50.8 °F /  10.4 °C 30.2 °F /  -1 °C 30.05in /  1017.5hPa SSW 10.0mph /  16.1km/h 23.0mph /  37km/h 45% 0.00in /  0mm
21:45 50.7 °F /  10.4 °C 30.1 °F /  -1.1 °C 30.05in /  1017.5hPa SW 11.0mph /  17.7km/h 23.0mph /  37km/h 45% 0.00in /  0mm
21:55 50.6 °F /  10.3 °C 30.0 °F /  -1.1 °C 30.05in /  1017.5hPa SSW 8.0mph /  12.9km/h 24.0mph /  38.6km/h 45% 0.00in /  0mm
22:00 50.6 °F /  10.3 °C 30.0 °F /  -1.1 °C 30.05in /  1017.5hPa SSW 8.0mph /  12.9km/h 18.0mph /  29km/h 45% 0.00in /  0mm
22:05 50.4 °F /  10.2 °C 29.9 °F /  -1.2 °C 30.05in /  1017.5hPa SSW 7.0mph /  11.3km/h 20.0mph /  32.2km/h 45% 0.00in /  0mm
22:10 50.5 °F /  10.3 °C 30.0 °F /  -1.1 °C 30.05in /  1017.5hPa SSW 10.0mph /  16.1km/h 20.0mph /  32.2km/h 45% 0.00in /  0mm
22:15 50.4 °F /  10.2 °C 29.9 °F /  -1.2 °C 30.05in /  1017.5hPa SSW 8.0mph /  12.9km/h 17.0mph /  27.4km/h 45% 0.00in /  0mm
22:20 50.4 °F /  10.2 °C 29.9 °F /  -1.2 °C 30.05in /  1017.5hPa SSW 7.0mph /  11.3km/h 16.0mph /  25.7km/h 45% 0.00in /  0mm
22:30 50.4 °F /  10.2 °C 29.9 °F /  -1.2 °C 30.05in /  1017.5hPa SSW 10.0mph /  16.1km/h 21.0mph /  33.8km/h 45% 0.00in /  0mm
22:40 50.3 °F /  10.2 °C 29.8 °F /  -1.2 °C 30.05in /  1017.5hPa SSW 10.0mph /  16.1km/h 18.0mph /  29km/h 45% 0.00in /  0mm
22:45 50.4 °F /  10.2 °C 29.9 °F /  -1.2 °C 30.05in /  1017.5hPa SSW 8.0mph /  12.9km/h 18.0mph /  29km/h 45% 0.00in /  0mm
22:50 50.3 °F /  10.2 °C 29.8 °F /  -1.2 °C 30.05in /  1017.5hPa SSW 7.0mph /  11.3km/h 19.0mph /  30.6km/h 45% 0.00in /  0mm
22:55 50.2 °F /  10.1 °C 29.7 °F /  -1.3 °C 30.05in /  1017.5hPa SSW 8.0mph /  12.9km/h 19.0mph /  30.6km/h 45% 0.00in /  0mm
23:00 50.3 °F /  10.2 °C 29.8 °F /  -1.2 °C 30.05in /  1017.5hPa SSW 9.0mph /  14.5km/h 19.0mph /  30.6km/h 45% 0.00in /  0mm
23:05 50.1 °F /  10.1 °C 29.6 °F /  -1.3 °C 30.05in /  1017.5hPa SSW 9.0mph /  14.5km/h 19.0mph /  30.6km/h 45% 0.00in /  0mm
23:10 50.3 °F /  10.2 °C 29.8 °F /  -1.2 °C 30.05in /  1017.5hPa SSW 8.0mph /  12.9km/h 19.0mph /  30.6km/h 45% 0.00in /  0mm
23:15 50.4 °F /  10.2 °C 29.3 °F /  -1.5 °C 30.05in /  1017.5hPa SSW 11.0mph /  17.7km/h 19.0mph /  30.6km/h 44% 0.00in /  0mm
23:20 50.3 °F /  10.2 °C 29.8 °F /  -1.2 °C 30.05in /  1017.5hPa SSW 9.0mph /  14.5km/h 19.0mph /  30.6km/h 45% 0.00in /  0mm
23:25 50.1 °F /  10.1 °C 29.6 °F /  -1.3 °C 30.05in /  1017.5hPa SSW 8.0mph /  12.9km/h 19.0mph /  30.6km/h 45% 0.00in /  0mm
23:35 49.9 °F /  9.9 °C 29.4 °F /  -1.4 °C 30.05in /  1017.5hPa SSW 8.0mph /  12.9km/h 17.0mph /  27.4km/h 45% 0.00in /  0mm
23:40 50.1 °F /  10.1 °C 29.0 °F /  -1.7 °C 30.05in /  1017.5hPa SSW 10.0mph /  16.1km/h 17.0mph /  27.4km/h 44% 0.00in /  0mm
23:45 50.0 °F /  10 °C 29.5 °F /  -1.4 °C 30.05in /  1017.5hPa SSW 8.0mph /  12.9km/h 18.0mph /  29km/h 45% 0.00in /  0mm
23:50 49.9 °F /  9.9 °C 29.4 °F /  -1.4 °C 30.04in /  1017.2hPa SSW 8.0mph /  12.9km/h 18.0mph /  29km/h 45% 0.00in /  0mm
Westford Weather
Compliments of Weather Underground

 
 
Current Radar Loop:

Copyright © WestfordWeather.net 2007-2014. All rights reserved.